sensor_id;sensor_type;location;lat;lon;timestamp;P1;durP1;ratioP1;P2;durP2;ratioP2
23404;SDS011;11875;49.356;2.718;2022-10-17T00:01:32;4.68;;;4.28;;
23404;SDS011;11875;49.356;2.718;2022-10-17T00:03:57;6.03;;;4.43;;
23404;SDS011;11875;49.356;2.718;2022-10-17T00:06:23;6.15;;;4.15;;
23404;SDS011;11875;49.356;2.718;2022-10-17T00:08:49;8.70;;;4.40;;
23404;SDS011;11875;49.356;2.718;2022-10-17T00:11:15;5.68;;;4.10;;
23404;SDS011;11875;49.356;2.718;2022-10-17T00:13:44;6.68;;;4.18;;
23404;SDS011;11875;49.356;2.718;2022-10-17T00:16:10;10.25;;;4.32;;
23404;SDS011;11875;49.356;2.718;2022-10-17T00:18:36;5.38;;;4.63;;
23404;SDS011;11875;49.356;2.718;2022-10-17T00:21:02;5.40;;;4.38;;
23404;SDS011;11875;49.356;2.718;2022-10-17T00:23:27;9.32;;;4.15;;
23404;SDS011;11875;49.356;2.718;2022-10-17T00:25:57;5.13;;;4.25;;
23404;SDS011;11875;49.356;2.718;2022-10-17T00:28:28;5.13;;;4.20;;
23404;SDS011;11875;49.356;2.718;2022-10-17T00:30:58;4.95;;;4.00;;
23404;SDS011;11875;49.356;2.718;2022-10-17T00:33:25;6.07;;;4.53;;
23404;SDS011;11875;49.356;2.718;2022-10-17T00:38:55;8.73;;;4.63;;
23404;SDS011;11875;49.356;2.718;2022-10-17T00:41:23;6.53;;;4.18;;
23404;SDS011;11875;49.356;2.718;2022-10-17T00:44:01;6.03;;;4.57;;
23404;SDS011;11875;49.356;2.718;2022-10-17T00:46:37;6.15;;;4.22;;
23404;SDS011;11875;49.356;2.718;2022-10-17T00:49:07;8.75;;;4.00;;
23404;SDS011;11875;49.356;2.718;2022-10-17T00:51:56;11.30;;;4.68;;
23404;SDS011;11875;49.356;2.718;2022-10-17T00:54:24;10.20;;;5.07;;
23404;SDS011;11875;49.356;2.718;2022-10-17T00:56:55;5.40;;;4.03;;
23404;SDS011;11875;49.356;2.718;2022-10-17T00:59:21;8.25;;;4.60;;
23404;SDS011;11875;49.356;2.718;2022-10-17T01:02:05;6.82;;;4.60;;
23404;SDS011;11875;49.356;2.718;2022-10-17T01:04:37;7.35;;;4.70;;
23404;SDS011;11875;49.356;2.718;2022-10-17T01:07:06;8.38;;;4.38;;
23404;SDS011;11875;49.356;2.718;2022-10-17T01:09:31;4.93;;;4.15;;
23404;SDS011;11875;49.356;2.718;2022-10-17T01:12:03;9.27;;;4.35;;
23404;SDS011;11875;49.356;2.718;2022-10-17T01:14:57;8.25;;;4.18;;
23404;SDS011;11875;49.356;2.718;2022-10-17T01:20:46;7.00;;;4.95;;
23404;SDS011;11875;49.356;2.718;2022-10-17T01:23:42;7.90;;;4.68;;
23404;SDS011;11875;49.356;2.718;2022-10-17T01:32:01;5.40;;;4.45;;
23404;SDS011;11875;49.356;2.718;2022-10-17T01:34:59;5.55;;;4.25;;
23404;SDS011;11875;49.356;2.718;2022-10-17T01:37:39;5.40;;;4.43;;
23404;SDS011;11875;49.356;2.718;2022-10-17T01:40:15;9.85;;;4.47;;
23404;SDS011;11875;49.356;2.718;2022-10-17T01:43:04;8.30;;;4.20;;
23404;SDS011;11875;49.356;2.718;2022-10-17T01:45:32;12.23;;;4.20;;
23404;SDS011;11875;49.356;2.718;2022-10-17T01:48:06;6.70;;;4.55;;
23404;SDS011;11875;49.356;2.718;2022-10-17T01:50:38;7.65;;;4.63;;
23404;SDS011;11875;49.356;2.718;2022-10-17T01:53:09;8.70;;;4.78;;
23404;SDS011;11875;49.356;2.718;2022-10-17T01:55:44;5.50;;;4.35;;
23404;SDS011;11875;49.356;2.718;2022-10-17T01:58:12;8.13;;;4.45;;
23404;SDS011;11875;49.356;2.718;2022-10-17T02:00:44;6.65;;;4.65;;
23404;SDS011;11875;49.356;2.718;2022-10-17T02:03:13;6.38;;;4.38;;
23404;SDS011;11875;49.356;2.718;2022-10-17T02:05:42;11.93;;;4.70;;
23404;SDS011;11875;49.356;2.718;2022-10-17T02:08:08;6.40;;;4.45;;
23404;SDS011;11875;49.356;2.718;2022-10-17T02:10:38;6.95;;;4.32;;
23404;SDS011;11875;49.356;2.718;2022-10-17T02:16:24;6.45;;;3.83;;
23404;SDS011;11875;49.356;2.718;2022-10-17T02:24:06;6.60;;;3.97;;
23404;SDS011;11875;49.356;2.718;2022-10-17T02:29:36;5.68;;;4.13;;
23404;SDS011;11875;49.356;2.718;2022-10-17T02:32:10;5.93;;;4.03;;
23404;SDS011;11875;49.356;2.718;2022-10-17T02:34:53;6.32;;;4.43;;
23404;SDS011;11875;49.356;2.718;2022-10-17T02:37:24;5.10;;;4.50;;
23404;SDS011;11875;49.356;2.718;2022-10-17T02:39:53;8.82;;;4.32;;
23404;SDS011;11875;49.356;2.718;2022-10-17T02:42:22;7.65;;;4.47;;
23404;SDS011;11875;49.356;2.718;2022-10-17T02:44:50;8.23;;;3.90;;
23404;SDS011;11875;49.356;2.718;2022-10-17T02:47:27;7.07;;;4.20;;
23404;SDS011;11875;49.356;2.718;2022-10-17T02:49:56;6.38;;;4.03;;
23404;SDS011;11875;49.356;2.718;2022-10-17T02:52:30;6.95;;;4.20;;
23404;SDS011;11875;49.356;2.718;2022-10-17T02:55:23;6.78;;;4.35;;
23404;SDS011;11875;49.356;2.718;2022-10-17T02:57:50;5.38;;;4.30;;
23404;SDS011;11875;49.356;2.718;2022-10-17T03:00:20;5.13;;;4.40;;
23404;SDS011;11875;49.356;2.718;2022-10-17T03:02:48;5.18;;;4.10;;
23404;SDS011;11875;49.356;2.718;2022-10-17T03:05:20;6.72;;;4.20;;
23404;SDS011;11875;49.356;2.718;2022-10-17T03:07:47;8.48;;;4.38;;
23404;SDS011;11875;49.356;2.718;2022-10-17T03:10:13;6.97;;;3.83;;
23404;SDS011;11875;49.356;2.718;2022-10-17T03:12:39;5.32;;;3.65;;
23404;SDS011;11875;49.356;2.718;2022-10-17T03:15:05;4.47;;;4.00;;
23404;SDS011;11875;49.356;2.718;2022-10-17T03:17:31;8.95;;;4.00;;
23404;SDS011;11875;49.356;2.718;2022-10-17T03:19:57;6.05;;;3.92;;
23404;SDS011;11875;49.356;2.718;2022-10-17T03:22:22;5.30;;;4.03;;
23404;SDS011;11875;49.356;2.718;2022-10-17T03:24:48;7.95;;;3.65;;
23404;SDS011;11875;49.356;2.718;2022-10-17T03:27:13;3.97;;;3.58;;
23404;SDS011;11875;49.356;2.718;2022-10-17T03:29:39;7.40;;;3.80;;
23404;SDS011;11875;49.356;2.718;2022-10-17T03:32:04;5.30;;;3.80;;
23404;SDS011;11875;49.356;2.718;2022-10-17T03:34:30;6.60;;;4.00;;
23404;SDS011;11875;49.356;2.718;2022-10-17T03:36:56;5.97;;;4.13;;
23404;SDS011;11875;49.356;2.718;2022-10-17T03:39:21;7.57;;;3.70;;
23404;SDS011;11875;49.356;2.718;2022-10-17T03:41:47;9.43;;;3.83;;
23404;SDS011;11875;49.356;2.718;2022-10-17T03:44:13;4.78;;;3.65;;
23404;SDS011;11875;49.356;2.718;2022-10-17T03:46:38;5.70;;;3.88;;
23404;SDS011;11875;49.356;2.718;2022-10-17T03:49:04;6.53;;;3.67;;
23404;SDS011;11875;49.356;2.718;2022-10-17T03:51:30;9.05;;;3.63;;
23404;SDS011;11875;49.356;2.718;2022-10-17T03:53:58;4.65;;;3.55;;
23404;SDS011;11875;49.356;2.718;2022-10-17T03:56:24;9.98;;;4.30;;
23404;SDS011;11875;49.356;2.718;2022-10-17T03:58:50;6.20;;;3.42;;
23404;SDS011;11875;49.356;2.718;2022-10-17T04:01:16;7.82;;;3.53;;
23404;SDS011;11875;49.356;2.718;2022-10-17T04:03:42;4.35;;;3.83;;
23404;SDS011;11875;49.356;2.718;2022-10-17T04:06:12;7.20;;;3.30;;
23404;SDS011;11875;49.356;2.718;2022-10-17T04:08:37;5.03;;;3.42;;
23404;SDS011;11875;49.356;2.718;2022-10-17T04:11:04;7.10;;;3.75;;
23404;SDS011;11875;49.356;2.718;2022-10-17T04:13:32;6.80;;;3.58;;
23404;SDS011;11875;49.356;2.718;2022-10-17T04:15:59;7.03;;;3.60;;
23404;SDS011;11875;49.356;2.718;2022-10-17T04:18:27;10.20;;;3.55;;
23404;SDS011;11875;49.356;2.718;2022-10-17T04:20:53;5.65;;;3.92;;
23404;SDS011;11875;49.356;2.718;2022-10-17T04:23:19;6.47;;;3.55;;
23404;SDS011;11875;49.356;2.718;2022-10-17T04:25:44;7.00;;;3.45;;
23404;SDS011;11875;49.356;2.718;2022-10-17T04:28:10;5.88;;;3.40;;
23404;SDS011;11875;49.356;2.718;2022-10-17T04:30:36;7.90;;;3.63;;
23404;SDS011;11875;49.356;2.718;2022-10-17T04:33:02;6.22;;;3.42;;
23404;SDS011;11875;49.356;2.718;2022-10-17T04:35:27;7.03;;;3.38;;
23404;SDS011;11875;49.356;2.718;2022-10-17T04:37:53;6.28;;;3.70;;
23404;SDS011;11875;49.356;2.718;2022-10-17T04:40:19;7.88;;;3.78;;
23404;SDS011;11875;49.356;2.718;2022-10-17T04:42:45;5.43;;;3.17;;
23404;SDS011;11875;49.356;2.718;2022-10-17T04:45:10;7.60;;;3.40;;
23404;SDS011;11875;49.356;2.718;2022-10-17T04:47:36;5.28;;;3.67;;
23404;SDS011;11875;49.356;2.718;2022-10-17T04:50:02;6.20;;;3.72;;
23404;SDS011;11875;49.356;2.718;2022-10-17T04:52:28;6.85;;;3.70;;
23404;SDS011;11875;49.356;2.718;2022-10-17T04:54:54;6.00;;;3.55;;
23404;SDS011;11875;49.356;2.718;2022-10-17T04:57:20;6.53;;;3.60;;
23404;SDS011;11875;49.356;2.718;2022-10-17T04:59:45;4.60;;;3.25;;
23404;SDS011;11875;49.356;2.718;2022-10-17T05:02:11;3.78;;;3.15;;
23404;SDS011;11875;49.356;2.718;2022-10-17T05:04:36;5.30;;;3.33;;
23404;SDS011;11875;49.356;2.718;2022-10-17T05:07:02;8.45;;;3.90;;
23404;SDS011;11875;49.356;2.718;2022-10-17T05:09:28;4.95;;;3.65;;
23404;SDS011;11875;49.356;2.718;2022-10-17T05:11:53;3.65;;;3.30;;
23404;SDS011;11875;49.356;2.718;2022-10-17T05:14:19;5.35;;;3.15;;
23404;SDS011;11875;49.356;2.718;2022-10-17T05:16:45;6.07;;;3.60;;
23404;SDS011;11875;49.356;2.718;2022-10-17T05:19:10;6.07;;;3.08;;
23404;SDS011;11875;49.356;2.718;2022-10-17T05:21:36;6.55;;;3.42;;
23404;SDS011;11875;49.356;2.718;2022-10-17T05:24:05;8.45;;;3.60;;
23404;SDS011;11875;49.356;2.718;2022-10-17T05:26:32;3.83;;;3.42;;
23404;SDS011;11875;49.356;2.718;2022-10-17T05:29:01;6.72;;;3.58;;
23404;SDS011;11875;49.356;2.718;2022-10-17T05:31:27;6.45;;;3.92;;
23404;SDS011;11875;49.356;2.718;2022-10-17T05:33:54;5.95;;;3.20;;
23404;SDS011;11875;49.356;2.718;2022-10-17T05:36:20;6.05;;;4.10;;
23404;SDS011;11875;49.356;2.718;2022-10-17T05:38:49;11.77;;;6.97;;
23404;SDS011;11875;49.356;2.718;2022-10-17T05:41:16;6.60;;;3.63;;
23404;SDS011;11875;49.356;2.718;2022-10-17T05:43:41;5.82;;;3.90;;
23404;SDS011;11875;49.356;2.718;2022-10-17T05:46:08;6.95;;;3.53;;
23404;SDS011;11875;49.356;2.718;2022-10-17T05:48:33;10.98;;;3.60;;
23404;SDS011;11875;49.356;2.718;2022-10-17T05:51:00;5.18;;;3.70;;
23404;SDS011;11875;49.356;2.718;2022-10-17T05:53:29;7.47;;;3.60;;
23404;SDS011;11875;49.356;2.718;2022-10-17T05:55:59;6.95;;;3.80;;
23404;SDS011;11875;49.356;2.718;2022-10-17T05:58:27;5.97;;;3.90;;
23404;SDS011;11875;49.356;2.718;2022-10-17T06:00:59;7.70;;;3.67;;
23404;SDS011;11875;49.356;2.718;2022-10-17T06:03:27;6.55;;;4.20;;
23404;SDS011;11875;49.356;2.718;2022-10-17T06:05:53;10.43;;;3.78;;
23404;SDS011;11875;49.356;2.718;2022-10-17T06:08:19;9.80;;;4.47;;
23404;SDS011;11875;49.356;2.718;2022-10-17T06:10:48;5.82;;;3.80;;
23404;SDS011;11875;49.356;2.718;2022-10-17T06:13:15;10.18;;;3.83;;
23404;SDS011;11875;49.356;2.718;2022-10-17T06:15:41;7.65;;;4.35;;
23404;SDS011;11875;49.356;2.718;2022-10-17T06:18:06;5.40;;;3.80;;
23404;SDS011;11875;49.356;2.718;2022-10-17T06:20:32;8.32;;;4.47;;
23404;SDS011;11875;49.356;2.718;2022-10-17T06:22:58;8.75;;;4.82;;
23404;SDS011;11875;49.356;2.718;2022-10-17T06:25:23;9.50;;;3.95;;
23404;SDS011;11875;49.356;2.718;2022-10-17T06:27:49;7.00;;;4.20;;
23404;SDS011;11875;49.356;2.718;2022-10-17T06:30:14;15.05;;;4.43;;
23404;SDS011;11875;49.356;2.718;2022-10-17T06:32:40;9.48;;;5.13;;
23404;SDS011;11875;49.356;2.718;2022-10-17T06:35:05;9.10;;;4.72;;
23404;SDS011;11875;49.356;2.718;2022-10-17T06:37:32;11.88;;;5.03;;
23404;SDS011;11875;49.356;2.718;2022-10-17T06:39:58;9.55;;;4.90;;
23404;SDS011;11875;49.356;2.718;2022-10-17T06:42:24;13.98;;;5.10;;
23404;SDS011;11875;49.356;2.718;2022-10-17T06:44:49;10.70;;;4.70;;
23404;SDS011;11875;49.356;2.718;2022-10-17T06:47:15;10.75;;;4.80;;
23404;SDS011;11875;49.356;2.718;2022-10-17T06:49:41;6.60;;;4.43;;
23404;SDS011;11875;49.356;2.718;2022-10-17T06:52:06;7.35;;;4.50;;
23404;SDS011;11875;49.356;2.718;2022-10-17T06:54:32;8.07;;;5.25;;
23404;SDS011;11875;49.356;2.718;2022-10-17T06:56:57;8.52;;;4.45;;
23404;SDS011;11875;49.356;2.718;2022-10-17T06:59:23;7.63;;;5.30;;
23404;SDS011;11875;49.356;2.718;2022-10-17T07:01:48;7.55;;;5.07;;
23404;SDS011;11875;49.356;2.718;2022-10-17T07:04:14;9.80;;;4.50;;
23404;SDS011;11875;49.356;2.718;2022-10-17T07:06:40;6.38;;;4.38;;
23404;SDS011;11875;49.356;2.718;2022-10-17T07:09:05;9.23;;;4.40;;
23404;SDS011;11875;49.356;2.718;2022-10-17T07:11:32;9.52;;;5.75;;
23404;SDS011;11875;49.356;2.718;2022-10-17T07:14:01;8.35;;;4.53;;
23404;SDS011;11875;49.356;2.718;2022-10-17T07:16:26;9.48;;;5.10;;
23404;SDS011;11875;49.356;2.718;2022-10-17T07:18:52;6.75;;;4.70;;
23404;SDS011;11875;49.356;2.718;2022-10-17T07:21:18;7.07;;;4.22;;
23404;SDS011;11875;49.356;2.718;2022-10-17T07:23:44;9.25;;;4.82;;
23404;SDS011;11875;49.356;2.718;2022-10-17T07:26:12;6.05;;;4.63;;
23404;SDS011;11875;49.356;2.718;2022-10-17T07:28:39;9.88;;;5.10;;
23404;SDS011;11875;49.356;2.718;2022-10-17T07:31:07;9.63;;;5.20;;
23404;SDS011;11875;49.356;2.718;2022-10-17T07:33:35;5.18;;;4.05;;
23404;SDS011;11875;49.356;2.718;2022-10-17T07:36:01;9.93;;;4.25;;
23404;SDS011;11875;49.356;2.718;2022-10-17T07:38:28;5.68;;;4.32;;
23404;SDS011;11875;49.356;2.718;2022-10-17T07:40:54;6.95;;;3.90;;
23404;SDS011;11875;49.356;2.718;2022-10-17T07:43:21;5.82;;;3.60;;
23404;SDS011;11875;49.356;2.718;2022-10-17T07:45:47;7.00;;;4.18;;
23404;SDS011;11875;49.356;2.718;2022-10-17T07:48:13;6.75;;;3.95;;
23404;SDS011;11875;49.356;2.718;2022-10-17T07:50:38;10.50;;;4.05;;
23404;SDS011;11875;49.356;2.718;2022-10-17T07:53:04;9.25;;;4.10;;
23404;SDS011;11875;49.356;2.718;2022-10-17T07:55:29;7.43;;;3.95;;
23404;SDS011;11875;49.356;2.718;2022-10-17T07:57:56;11.05;;;4.30;;
23404;SDS011;11875;49.356;2.718;2022-10-17T08:00:22;6.82;;;4.47;;
23404;SDS011;11875;49.356;2.718;2022-10-17T08:02:47;7.60;;;4.63;;
23404;SDS011;11875;49.356;2.718;2022-10-17T08:05:13;5.63;;;3.97;;
23404;SDS011;11875;49.356;2.718;2022-10-17T08:07:39;8.43;;;3.60;;
23404;SDS011;11875;49.356;2.718;2022-10-17T08:10:05;6.80;;;4.00;;
23404;SDS011;11875;49.356;2.718;2022-10-17T08:12:31;7.00;;;3.92;;
23404;SDS011;11875;49.356;2.718;2022-10-17T08:14:58;6.35;;;4.05;;
23404;SDS011;11875;49.356;2.718;2022-10-17T08:17:24;8.60;;;4.63;;
23404;SDS011;11875;49.356;2.718;2022-10-17T08:19:50;5.10;;;4.18;;
23404;SDS011;11875;49.356;2.718;2022-10-17T08:22:16;9.18;;;3.80;;
23404;SDS011;11875;49.356;2.718;2022-10-17T08:24:41;7.63;;;4.13;;
23404;SDS011;11875;49.356;2.718;2022-10-17T08:27:08;12.23;;;4.18;;
23404;SDS011;11875;49.356;2.718;2022-10-17T08:29:37;5.93;;;4.00;;
23404;SDS011;11875;49.356;2.718;2022-10-17T08:32:06;5.97;;;4.18;;
23404;SDS011;11875;49.356;2.718;2022-10-17T08:34:33;11.73;;;4.85;;
23404;SDS011;11875;49.356;2.718;2022-10-17T08:36:59;6.35;;;3.72;;
23404;SDS011;11875;49.356;2.718;2022-10-17T08:39:24;5.95;;;4.07;;
23404;SDS011;11875;49.356;2.718;2022-10-17T08:44:49;8.02;;;4.57;;
23404;SDS011;11875;49.356;2.718;2022-10-17T08:47:37;10.85;;;4.50;;
23404;SDS011;11875;49.356;2.718;2022-10-17T08:50:09;6.25;;;4.28;;
23404;SDS011;11875;49.356;2.718;2022-10-17T08:52:48;8.93;;;3.92;;
23404;SDS011;11875;49.356;2.718;2022-10-17T08:57:53;10.82;;;4.28;;
23404;SDS011;11875;49.356;2.718;2022-10-17T09:00:20;5.88;;;3.63;;
23404;SDS011;11875;49.356;2.718;2022-10-17T09:05:37;10.35;;;4.65;;
23404;SDS011;11875;49.356;2.718;2022-10-17T09:08:23;7.15;;;4.13;;
23404;SDS011;11875;49.356;2.718;2022-10-17T09:14:08;7.00;;;3.78;;
23404;SDS011;11875;49.356;2.718;2022-10-17T09:19:24;6.35;;;4.15;;
23404;SDS011;11875;49.356;2.718;2022-10-17T09:22:01;5.93;;;3.88;;
23404;SDS011;11875;49.356;2.718;2022-10-17T09:27:21;5.85;;;3.80;;
23404;SDS011;11875;49.356;2.718;2022-10-17T09:29:48;7.97;;;4.40;;
23404;SDS011;11875;49.356;2.718;2022-10-17T09:32:18;7.22;;;4.20;;
23404;SDS011;11875;49.356;2.718;2022-10-17T09:34:47;5.10;;;3.92;;
23404;SDS011;11875;49.356;2.718;2022-10-17T09:37:14;6.75;;;3.58;;
23404;SDS011;11875;49.356;2.718;2022-10-17T09:39:41;10.30;;;4.07;;
23404;SDS011;11875;49.356;2.718;2022-10-17T09:42:14;6.32;;;3.65;;
23404;SDS011;11875;49.356;2.718;2022-10-17T09:44:48;10.00;;;4.28;;
23404;SDS011;11875;49.356;2.718;2022-10-17T09:47:39;14.18;;;4.38;;
23404;SDS011;11875;49.356;2.718;2022-10-17T09:50:19;7.38;;;4.07;;
23404;SDS011;11875;49.356;2.718;2022-10-17T09:52:51;11.65;;;5.70;;
23404;SDS011;11875;49.356;2.718;2022-10-17T09:55:25;7.72;;;4.18;;
23404;SDS011;11875;49.356;2.718;2022-10-17T09:58:09;6.85;;;4.30;;
23404;SDS011;11875;49.356;2.718;2022-10-17T10:05:37;7.20;;;4.07;;
23404;SDS011;11875;49.356;2.718;2022-10-17T10:08:04;7.20;;;4.05;;
23404;SDS011;11875;49.356;2.718;2022-10-17T10:10:37;7.35;;;4.05;;
23404;SDS011;11875;49.356;2.718;2022-10-17T10:15:48;10.27;;;4.78;;
23404;SDS011;11875;49.356;2.718;2022-10-17T10:23:30;4.88;;;3.78;;
23404;SDS011;11875;49.356;2.718;2022-10-17T10:25:56;8.77;;;4.53;;
23404;SDS011;11875;49.356;2.718;2022-10-17T10:28:26;11.07;;;5.00;;
23404;SDS011;11875;49.356;2.718;2022-10-17T10:31:04;11.77;;;4.70;;
23404;SDS011;11875;49.356;2.718;2022-10-17T10:33:32;5.30;;;4.22;;
23404;SDS011;11875;49.356;2.718;2022-10-17T10:36:02;6.63;;;4.55;;
23404;SDS011;11875;49.356;2.718;2022-10-17T10:38:29;9.68;;;7.97;;
23404;SDS011;11875;49.356;2.718;2022-10-17T10:41:00;10.63;;;5.05;;
23404;SDS011;11875;49.356;2.718;2022-10-17T10:46:19;7.32;;;4.68;;
23404;SDS011;11875;49.356;2.718;2022-10-17T10:51:20;7.57;;;5.38;;
23404;SDS011;11875;49.356;2.718;2022-10-17T10:56:53;11.73;;;5.00;;
23404;SDS011;11875;49.356;2.718;2022-10-17T10:59:24;10.85;;;5.60;;
23404;SDS011;11875;49.356;2.718;2022-10-17T11:02:17;16.67;;;6.03;;
23404;SDS011;11875;49.356;2.718;2022-10-17T11:04:50;9.60;;;5.22;;
23404;SDS011;11875;49.356;2.718;2022-10-17T11:08:14;12.23;;;5.88;;
23404;SDS011;11875;49.356;2.718;2022-10-17T11:10:30;9.10;;;5.47;;
23404;SDS011;11875;49.356;2.718;2022-10-17T11:13:10;13.45;;;5.88;;
23404;SDS011;11875;49.356;2.718;2022-10-17T11:18:43;9.35;;;4.93;;
23404;SDS011;11875;49.356;2.718;2022-10-17T11:27:46;9.82;;;4.93;;
23404;SDS011;11875;49.356;2.718;2022-10-17T11:30:15;8.07;;;5.47;;
23404;SDS011;11875;49.356;2.718;2022-10-17T11:32:43;7.30;;;5.20;;
23404;SDS011;11875;49.356;2.718;2022-10-17T11:38:07;10.60;;;4.63;;
23404;SDS011;11875;49.356;2.718;2022-10-17T11:41:02;13.77;;;5.78;;
23404;SDS011;11875;49.356;2.718;2022-10-17T11:46:53;15.88;;;8.57;;
23404;SDS011;11875;49.356;2.718;2022-10-17T11:49:29;12.45;;;5.35;;
23404;SDS011;11875;49.356;2.718;2022-10-17T11:52:07;11.90;;;5.90;;
23404;SDS011;11875;49.356;2.718;2022-10-17T11:54:37;9.60;;;5.00;;
23404;SDS011;11875;49.356;2.718;2022-10-17T11:59:56;9.00;;;5.35;;
23404;SDS011;11875;49.356;2.718;2022-10-17T12:05:30;6.45;;;4.50;;
23404;SDS011;11875;49.356;2.718;2022-10-17T12:08:08;8.18;;;4.63;;
23404;SDS011;11875;49.356;2.718;2022-10-17T12:15:54;9.23;;;4.32;;
23404;SDS011;11875;49.356;2.718;2022-10-17T12:18:22;9.57;;;5.03;;
23404;SDS011;11875;49.356;2.718;2022-10-17T12:20:54;10.98;;;5.20;;
23404;SDS011;11875;49.356;2.718;2022-10-17T12:23:27;9.93;;;4.40;;
23404;SDS011;11875;49.356;2.718;2022-10-17T12:25:55;9.48;;;5.00;;
23404;SDS011;11875;49.356;2.718;2022-10-17T12:33:55;6.93;;;4.32;;
23404;SDS011;11875;49.356;2.718;2022-10-17T12:39:39;8.20;;;4.20;;
23404;SDS011;11875;49.356;2.718;2022-10-17T12:49:38;8.73;;;4.53;;
23404;SDS011;11875;49.356;2.718;2022-10-17T12:55:13;10.75;;;6.78;;
23404;SDS011;11875;49.356;2.718;2022-10-17T12:57:49;11.27;;;6.45;;
23404;SDS011;11875;49.356;2.718;2022-10-17T13:05:38;11.57;;;6.95;;
23404;SDS011;11875;49.356;2.718;2022-10-17T13:08:06;9.82;;;6.93;;
23404;SDS011;11875;49.356;2.718;2022-10-17T13:10:39;12.85;;;7.30;;
23404;SDS011;11875;49.356;2.718;2022-10-17T13:13:11;12.57;;;6.82;;
23404;SDS011;11875;49.356;2.718;2022-10-17T13:15:38;11.57;;;6.85;;
23404;SDS011;11875;49.356;2.718;2022-10-17T13:18:04;10.98;;;6.85;;
23404;SDS011;11875;49.356;2.718;2022-10-17T13:20:30;12.13;;;7.05;;
23404;SDS011;11875;49.356;2.718;2022-10-17T13:22:56;10.10;;;6.93;;
23404;SDS011;11875;49.356;2.718;2022-10-17T13:25:22;11.95;;;6.97;;
23404;SDS011;11875;49.356;2.718;2022-10-17T13:27:58;11.80;;;6.95;;
23404;SDS011;11875;49.356;2.718;2022-10-17T13:30:30;9.70;;;7.05;;
23404;SDS011;11875;49.356;2.718;2022-10-17T13:32:59;12.20;;;6.82;;
23404;SDS011;11875;49.356;2.718;2022-10-17T13:35:32;13.18;;;6.88;;
23404;SDS011;11875;49.356;2.718;2022-10-17T13:38:00;8.93;;;6.43;;
23404;SDS011;11875;49.356;2.718;2022-10-17T13:40:29;12.35;;;7.90;;
23404;SDS011;11875;49.356;2.718;2022-10-17T13:42:56;14.13;;;8.15;;
23404;SDS011;11875;49.356;2.718;2022-10-17T13:48:03;12.88;;;7.45;;
23404;SDS011;11875;49.356;2.718;2022-10-17T13:50:37;15.20;;;9.35;;
23404;SDS011;11875;49.356;2.718;2022-10-17T13:53:06;11.80;;;7.97;;
23404;SDS011;11875;49.356;2.718;2022-10-17T13:58:45;13.80;;;8.32;;
23404;SDS011;11875;49.356;2.718;2022-10-17T14:01:12;16.23;;;8.70;;
23404;SDS011;11875;49.356;2.718;2022-10-17T14:03:42;15.05;;;7.53;;
23404;SDS011;11875;49.356;2.718;2022-10-17T14:06:16;12.23;;;8.27;;
23404;SDS011;11875;49.356;2.718;2022-10-17T14:08:50;11.98;;;8.30;;
23404;SDS011;11875;49.356;2.718;2022-10-17T14:14:21;11.98;;;7.80;;
23404;SDS011;11875;49.356;2.718;2022-10-17T14:16:50;13.18;;;7.57;;
23404;SDS011;11875;49.356;2.718;2022-10-17T14:19:23;12.05;;;7.53;;
23404;SDS011;11875;49.356;2.718;2022-10-17T14:21:53;11.98;;;7.28;;
23404;SDS011;11875;49.356;2.718;2022-10-17T14:26:52;12.15;;;8.63;;
23404;SDS011;11875;49.356;2.718;2022-10-17T14:29:20;12.15;;;9.18;;
23404;SDS011;11875;49.356;2.718;2022-10-17T14:31:47;10.25;;;7.93;;
23404;SDS011;11875;49.356;2.718;2022-10-17T14:34:15;13.35;;;7.93;;
23404;SDS011;11875;49.356;2.718;2022-10-17T14:36:46;13.20;;;7.97;;
23404;SDS011;11875;49.356;2.718;2022-10-17T14:39:19;11.75;;;7.75;;
23404;SDS011;11875;49.356;2.718;2022-10-17T14:41:47;8.98;;;7.22;;
23404;SDS011;11875;49.356;2.718;2022-10-17T14:44:15;10.40;;;6.55;;
23404;SDS011;11875;49.356;2.718;2022-10-17T14:47:04;10.10;;;6.80;;
23404;SDS011;11875;49.356;2.718;2022-10-17T14:49:38;11.88;;;7.82;;
23404;SDS011;11875;49.356;2.718;2022-10-17T14:54:39;12.13;;;6.60;;
23404;SDS011;11875;49.356;2.718;2022-10-17T14:57:13;10.90;;;6.70;;
23404;SDS011;11875;49.356;2.718;2022-10-17T14:59:42;8.73;;;6.10;;
23404;SDS011;11875;49.356;2.718;2022-10-17T15:02:08;9.07;;;6.15;;
23404;SDS011;11875;49.356;2.718;2022-10-17T15:04:34;8.88;;;5.15;;
23404;SDS011;11875;49.356;2.718;2022-10-17T15:07:00;8.75;;;5.40;;
23404;SDS011;11875;49.356;2.718;2022-10-17T15:09:25;9.13;;;5.65;;
23404;SDS011;11875;49.356;2.718;2022-10-17T15:11:53;10.27;;;4.95;;
23404;SDS011;11875;49.356;2.718;2022-10-17T15:14:20;7.53;;;5.13;;
23404;SDS011;11875;49.356;2.718;2022-10-17T15:16:46;6.30;;;4.88;;
23404;SDS011;11875;49.356;2.718;2022-10-17T15:19:12;9.40;;;5.57;;
23404;SDS011;11875;49.356;2.718;2022-10-17T15:21:38;11.60;;;6.32;;
23404;SDS011;11875;49.356;2.718;2022-10-17T15:24:03;7.95;;;5.00;;
23404;SDS011;11875;49.356;2.718;2022-10-17T15:26:30;6.28;;;4.70;;
23404;SDS011;11875;49.356;2.718;2022-10-17T15:28:58;6.35;;;5.00;;
23404;SDS011;11875;49.356;2.718;2022-10-17T15:31:24;8.93;;;5.20;;
23404;SDS011;11875;49.356;2.718;2022-10-17T15:33:51;7.30;;;5.85;;
23404;SDS011;11875;49.356;2.718;2022-10-17T15:38:43;8.45;;;5.68;;
23404;SDS011;11875;49.356;2.718;2022-10-17T15:41:09;9.43;;;5.60;;
23404;SDS011;11875;49.356;2.718;2022-10-17T15:43:35;6.50;;;5.32;;
23404;SDS011;11875;49.356;2.718;2022-10-17T15:46:01;6.68;;;5.22;;
23404;SDS011;11875;49.356;2.718;2022-10-17T15:48:27;7.97;;;5.55;;
23404;SDS011;11875;49.356;2.718;2022-10-17T15:50:54;8.05;;;5.50;;
23404;SDS011;11875;49.356;2.718;2022-10-17T15:53:20;8.73;;;5.68;;
23404;SDS011;11875;49.356;2.718;2022-10-17T15:55:46;8.55;;;5.53;;
23404;SDS011;11875;49.356;2.718;2022-10-17T15:58:15;9.27;;;6.07;;
23404;SDS011;11875;49.356;2.718;2022-10-17T16:00:42;9.15;;;5.75;;
23404;SDS011;11875;49.356;2.718;2022-10-17T16:03:08;7.20;;;5.70;;
23404;SDS011;11875;49.356;2.718;2022-10-17T16:05:34;6.65;;;5.78;;
23404;SDS011;11875;49.356;2.718;2022-10-17T16:07:59;9.07;;;6.00;;
23404;SDS011;11875;49.356;2.718;2022-10-17T16:10:25;7.63;;;5.32;;
23404;SDS011;11875;49.356;2.718;2022-10-17T16:12:51;7.30;;;5.60;;
23404;SDS011;11875;49.356;2.718;2022-10-17T16:15:23;10.45;;;7.55;;
23404;SDS011;11875;49.356;2.718;2022-10-17T16:17:54;7.05;;;5.35;;
23404;SDS011;11875;49.356;2.718;2022-10-17T16:20:21;7.90;;;5.25;;
23404;SDS011;11875;49.356;2.718;2022-10-17T16:22:47;10.38;;;6.05;;
23404;SDS011;11875;49.356;2.718;2022-10-17T16:27:45;7.45;;;5.75;;
23404;SDS011;11875;49.356;2.718;2022-10-17T16:30:12;7.90;;;5.15;;
23404;SDS011;11875;49.356;2.718;2022-10-17T16:32:38;8.70;;;4.50;;
23404;SDS011;11875;49.356;2.718;2022-10-17T16:35:04;6.43;;;5.15;;
23404;SDS011;11875;49.356;2.718;2022-10-17T16:37:31;6.05;;;5.00;;
23404;SDS011;11875;49.356;2.718;2022-10-17T16:39:56;8.73;;;4.85;;
23404;SDS011;11875;49.356;2.718;2022-10-17T16:42:22;9.32;;;4.60;;
23404;SDS011;11875;49.356;2.718;2022-10-17T16:44:48;5.85;;;4.90;;
23404;SDS011;11875;49.356;2.718;2022-10-17T16:47:14;6.07;;;4.75;;
23404;SDS011;11875;49.356;2.718;2022-10-17T16:49:40;6.20;;;4.72;;
23404;SDS011;11875;49.356;2.718;2022-10-17T16:52:06;6.38;;;4.32;;
23404;SDS011;11875;49.356;2.718;2022-10-17T16:54:32;6.80;;;4.40;;
23404;SDS011;11875;49.356;2.718;2022-10-17T16:56:59;8.35;;;4.47;;
23404;SDS011;11875;49.356;2.718;2022-10-17T16:59:25;7.28;;;4.32;;
23404;SDS011;11875;49.356;2.718;2022-10-17T17:01:51;6.50;;;5.53;;
23404;SDS011;11875;49.356;2.718;2022-10-17T17:04:17;10.20;;;6.05;;
23404;SDS011;11875;49.356;2.718;2022-10-17T17:06:42;13.48;;;5.55;;
23404;SDS011;11875;49.356;2.718;2022-10-17T17:09:08;7.50;;;4.65;;